LFKB/BIA METAR and TAF weather

Enter ICAO airport designator
Station Type Date Time Source
LFKB METAR 2021/08/05 03:30 UTC NOAA

LFKB 050330Z AUTO 20006KT 100V260 CAVOK 20/13 Q1009 NOSIG


Station Type Date Time Source
LFKB Decoded METAR 2021/08/05 03:30 UTC NOAA

Bastia, France (LFKB) 42-33N 009-29E 12M
Aug 04, 2021 - 11:30 PM EDT / 2021.08.05 0330 UTC
Wind: from the SSW (200 degrees) at 7 MPH (6 KT) (direction variable):0
Visibility: greater than 7 mile(s):0
Temperature: 68 F (20 C)
Dew Point: 55 F (13 C)
Relative Humidity: 64%
Pressure (altimeter): 29.80 in. Hg (1009 hPa)
ob: LFKB 050330Z AUTO 20006KT 100V260 CAVOK 20/13 Q1009 NOSIG
cycle: 3

Station Type Date Time Source
LFKB TAF 2021/08/05 03:47 UTC NOAA

TAF LFKB 050200Z 0503/0603 24004KT CAVOK TX31/0512Z TN20/0603Z
TEMPO 0503/0504 22010KT
BECMG 0504/0506 24012KT
BECMG 0509/0511 10012KT
BECMG 0520/0521 23004KT

Example: see airport list